sensor_id;sensor_type;location;lat;lon;timestamp;P1;durP1;ratioP1;P2;durP2;ratioP2
49962;SDS011;36180;57.678;11.910;2024-03-02T00:01:32;116.50;;;48.22;;
49962;SDS011;36180;57.678;11.910;2024-03-02T00:03:59;112.05;;;46.25;;
49962;SDS011;36180;57.678;11.910;2024-03-02T00:06:27;114.68;;;47.08;;
49962;SDS011;36180;57.678;11.910;2024-03-02T00:08:56;114.55;;;47.67;;
49962;SDS011;36180;57.678;11.910;2024-03-02T00:11:24;116.70;;;48.55;;
49962;SDS011;36180;57.678;11.910;2024-03-02T00:13:52;113.15;;;47.03;;
49962;SDS011;36180;57.678;11.910;2024-03-02T00:16:19;119.38;;;47.65;;
49962;SDS011;36180;57.678;11.910;2024-03-02T00:18:47;119.22;;;47.85;;
49962;SDS011;36180;57.678;11.910;2024-03-02T00:21:14;120.15;;;47.70;;
49962;SDS011;36180;57.678;11.910;2024-03-02T00:23:44;118.63;;;46.75;;
49962;SDS011;36180;57.678;11.910;2024-03-02T00:26:11;107.47;;;45.70;;
49962;SDS011;36180;57.678;11.910;2024-03-02T00:28:39;114.90;;;46.92;;
49962;SDS011;36180;57.678;11.910;2024-03-02T00:31:09;114.25;;;45.97;;
49962;SDS011;36180;57.678;11.910;2024-03-02T00:33:38;121.20;;;49.05;;
49962;SDS011;36180;57.678;11.910;2024-03-02T00:36:07;118.95;;;48.28;;
49962;SDS011;36180;57.678;11.910;2024-03-02T00:38:35;123.65;;;47.25;;
49962;SDS011;36180;57.678;11.910;2024-03-02T00:41:15;123.05;;;46.85;;
49962;SDS011;36180;57.678;11.910;2024-03-02T00:43:45;126.90;;;47.17;;
49962;SDS011;36180;57.678;11.910;2024-03-02T00:46:15;128.38;;;48.30;;
49962;SDS011;36180;57.678;11.910;2024-03-02T00:48:47;107.93;;;45.55;;
49962;SDS011;36180;57.678;11.910;2024-03-02T00:51:19;118.50;;;47.03;;
49962;SDS011;36180;57.678;11.910;2024-03-02T00:53:46;124.80;;;47.65;;
49962;SDS011;36180;57.678;11.910;2024-03-02T00:56:15;118.97;;;46.72;;
49962;SDS011;36180;57.678;11.910;2024-03-02T00:58:42;119.88;;;47.35;;
49962;SDS011;36180;57.678;11.910;2024-03-02T01:01:09;117.68;;;48.28;;
49962;SDS011;36180;57.678;11.910;2024-03-02T01:03:35;116.93;;;46.15;;
49962;SDS011;36180;57.678;11.910;2024-03-02T01:06:04;109.28;;;44.17;;
49962;SDS011;36180;57.678;11.910;2024-03-02T01:08:32;114.90;;;46.08;;
49962;SDS011;36180;57.678;11.910;2024-03-02T01:11:00;117.78;;;47.00;;
49962;SDS011;36180;57.678;11.910;2024-03-02T01:13:28;113.32;;;46.78;;
49962;SDS011;36180;57.678;11.910;2024-03-02T01:15:55;114.70;;;47.30;;
49962;SDS011;36180;57.678;11.910;2024-03-02T01:18:22;116.13;;;47.50;;
49962;SDS011;36180;57.678;11.910;2024-03-02T01:20:49;109.07;;;44.60;;
49962;SDS011;36180;57.678;11.910;2024-03-02T01:23:17;111.05;;;46.05;;
49962;SDS011;36180;57.678;11.910;2024-03-02T01:25:45;112.93;;;45.30;;
49962;SDS011;36180;57.678;11.910;2024-03-02T01:28:13;115.00;;;46.60;;
49962;SDS011;36180;57.678;11.910;2024-03-02T01:30:41;110.93;;;46.22;;
49962;SDS011;36180;57.678;11.910;2024-03-02T01:33:08;107.60;;;45.70;;
49962;SDS011;36180;57.678;11.910;2024-03-02T01:35:36;111.05;;;44.35;;
49962;SDS011;36180;57.678;11.910;2024-03-02T01:38:03;114.18;;;44.83;;
49962;SDS011;36180;57.678;11.910;2024-03-02T01:40:32;116.22;;;45.85;;
49962;SDS011;36180;57.678;11.910;2024-03-02T01:42:59;113.07;;;44.92;;
49962;SDS011;36180;57.678;11.910;2024-03-02T01:45:27;111.13;;;44.88;;
49962;SDS011;36180;57.678;11.910;2024-03-02T01:47:56;112.35;;;44.05;;
49962;SDS011;36180;57.678;11.910;2024-03-02T01:50:26;112.15;;;44.85;;
49962;SDS011;36180;57.678;11.910;2024-03-02T01:52:55;104.35;;;42.60;;
49962;SDS011;36180;57.678;11.910;2024-03-02T01:55:22;98.85;;;42.95;;
49962;SDS011;36180;57.678;11.910;2024-03-02T01:57:49;108.78;;;45.13;;
49962;SDS011;36180;57.678;11.910;2024-03-02T02:00:17;110.30;;;43.03;;
49962;SDS011;36180;57.678;11.910;2024-03-02T02:02:45;109.07;;;43.40;;
49962;SDS011;36180;57.678;11.910;2024-03-02T02:05:13;108.80;;;44.88;;
49962;SDS011;36180;57.678;11.910;2024-03-02T02:07:41;111.68;;;43.97;;
49962;SDS011;36180;57.678;11.910;2024-03-02T02:10:08;112.13;;;44.50;;
49962;SDS011;36180;57.678;11.910;2024-03-02T02:12:35;110.70;;;43.40;;
49962;SDS011;36180;57.678;11.910;2024-03-02T02:15:03;110.93;;;43.05;;
49962;SDS011;36180;57.678;11.910;2024-03-02T02:17:31;101.78;;;41.58;;
49962;SDS011;36180;57.678;11.910;2024-03-02T02:19:58;92.38;;;41.13;;
49962;SDS011;36180;57.678;11.910;2024-03-02T02:22:26;105.40;;;45.28;;
49962;SDS011;36180;57.678;11.910;2024-03-02T02:24:53;104.15;;;42.72;;
49962;SDS011;36180;57.678;11.910;2024-03-02T02:27:20;107.18;;;41.50;;
49962;SDS011;36180;57.678;11.910;2024-03-02T02:29:47;94.60;;;42.00;;
49962;SDS011;36180;57.678;11.910;2024-03-02T02:32:14;104.47;;;42.58;;
49962;SDS011;36180;57.678;11.910;2024-03-02T02:34:42;101.65;;;42.83;;
49962;SDS011;36180;57.678;11.910;2024-03-02T02:37:09;105.43;;;42.55;;
49962;SDS011;36180;57.678;11.910;2024-03-02T02:39:37;95.28;;;41.15;;
49962;SDS011;36180;57.678;11.910;2024-03-02T02:42:05;94.82;;;41.58;;
49962;SDS011;36180;57.678;11.910;2024-03-02T02:44:32;101.95;;;43.00;;
49962;SDS011;36180;57.678;11.910;2024-03-02T02:46:59;98.40;;;40.17;;
49962;SDS011;36180;57.678;11.910;2024-03-02T02:49:26;98.45;;;39.55;;
49962;SDS011;36180;57.678;11.910;2024-03-02T02:51:53;101.35;;;40.95;;
49962;SDS011;36180;57.678;11.910;2024-03-02T02:54:20;101.78;;;42.30;;
49962;SDS011;36180;57.678;11.910;2024-03-02T02:56:48;99.40;;;41.63;;
49962;SDS011;36180;57.678;11.910;2024-03-02T02:59:15;100.93;;;42.30;;
49962;SDS011;36180;57.678;11.910;2024-03-02T03:01:42;93.93;;;39.17;;
49962;SDS011;36180;57.678;11.910;2024-03-02T03:04:09;97.50;;;40.72;;
49962;SDS011;36180;57.678;11.910;2024-03-02T03:06:37;101.93;;;42.42;;
49962;SDS011;36180;57.678;11.910;2024-03-02T03:09:04;92.72;;;39.28;;
49962;SDS011;36180;57.678;11.910;2024-03-02T03:11:31;97.30;;;39.45;;
49962;SDS011;36180;57.678;11.910;2024-03-02T03:13:59;96.80;;;41.17;;
49962;SDS011;36180;57.678;11.910;2024-03-02T03:16:26;97.93;;;41.63;;
49962;SDS011;36180;57.678;11.910;2024-03-02T03:18:53;90.95;;;38.40;;
49962;SDS011;36180;57.678;11.910;2024-03-02T03:21:20;95.78;;;40.42;;
49962;SDS011;36180;57.678;11.910;2024-03-02T03:23:47;99.15;;;40.50;;
49962;SDS011;36180;57.678;11.910;2024-03-02T03:26:14;96.97;;;40.35;;
49962;SDS011;36180;57.678;11.910;2024-03-02T03:28:41;97.22;;;41.65;;
49962;SDS011;36180;57.678;11.910;2024-03-02T03:31:10;100.78;;;41.33;;
49962;SDS011;36180;57.678;11.910;2024-03-02T03:33:37;93.05;;;39.53;;
49962;SDS011;36180;57.678;11.910;2024-03-02T03:36:04;95.78;;;40.75;;
49962;SDS011;36180;57.678;11.910;2024-03-02T03:38:31;100.68;;;40.00;;
49962;SDS011;36180;57.678;11.910;2024-03-02T03:40:58;92.65;;;41.35;;
49962;SDS011;36180;57.678;11.910;2024-03-02T03:43:25;98.78;;;40.35;;
49962;SDS011;36180;57.678;11.910;2024-03-02T03:45:52;104.88;;;40.38;;
49962;SDS011;36180;57.678;11.910;2024-03-02T03:48:20;97.00;;;39.83;;
49962;SDS011;36180;57.678;11.910;2024-03-02T03:50:47;100.07;;;40.78;;
49962;SDS011;36180;57.678;11.910;2024-03-02T03:53:14;90.78;;;38.08;;
49962;SDS011;36180;57.678;11.910;2024-03-02T03:55:41;96.72;;;39.55;;
49962;SDS011;36180;57.678;11.910;2024-03-02T03:58:08;91.85;;;38.95;;
49962;SDS011;36180;57.678;11.910;2024-03-02T04:00:35;92.63;;;39.22;;
49962;SDS011;36180;57.678;11.910;2024-03-02T04:03:02;95.40;;;37.97;;
49962;SDS011;36180;57.678;11.910;2024-03-02T04:05:31;98.07;;;38.38;;
49962;SDS011;36180;57.678;11.910;2024-03-02T04:07:58;86.28;;;38.45;;
49962;SDS011;36180;57.678;11.910;2024-03-02T04:10:26;99.85;;;39.70;;
49962;SDS011;36180;57.678;11.910;2024-03-02T04:12:53;95.68;;;39.75;;
49962;SDS011;36180;57.678;11.910;2024-03-02T04:15:20;90.28;;;38.72;;
49962;SDS011;36180;57.678;11.910;2024-03-02T04:17:48;102.85;;;39.35;;
49962;SDS011;36180;57.678;11.910;2024-03-02T04:20:15;85.15;;;38.35;;
49962;SDS011;36180;57.678;11.910;2024-03-02T04:22:43;92.70;;;38.50;;
49962;SDS011;36180;57.678;11.910;2024-03-02T04:25:10;99.18;;;38.97;;
49962;SDS011;36180;57.678;11.910;2024-03-02T04:27:37;97.75;;;38.72;;
49962;SDS011;36180;57.678;11.910;2024-03-02T04:30:05;92.13;;;38.85;;
49962;SDS011;36180;57.678;11.910;2024-03-02T04:32:32;87.35;;;39.28;;
49962;SDS011;36180;57.678;11.910;2024-03-02T04:35:01;94.90;;;39.70;;
49962;SDS011;36180;57.678;11.910;2024-03-02T04:37:29;97.40;;;39.53;;
49962;SDS011;36180;57.678;11.910;2024-03-02T04:39:57;99.82;;;40.22;;
49962;SDS011;36180;57.678;11.910;2024-03-02T04:42:24;94.65;;;39.47;;
49962;SDS011;36180;57.678;11.910;2024-03-02T04:44:51;100.35;;;38.70;;
49962;SDS011;36180;57.678;11.910;2024-03-02T04:47:18;97.85;;;37.60;;
49962;SDS011;36180;57.678;11.910;2024-03-02T04:49:45;103.10;;;39.10;;
49962;SDS011;36180;57.678;11.910;2024-03-02T04:52:12;95.38;;;37.55;;
49962;SDS011;36180;57.678;11.910;2024-03-02T04:54:39;90.00;;;38.40;;
49962;SDS011;36180;57.678;11.910;2024-03-02T04:57:22;97.10;;;38.47;;
49962;SDS011;36180;57.678;11.910;2024-03-02T04:59:49;94.80;;;38.17;;
49962;SDS011;36180;57.678;11.910;2024-03-02T05:02:15;89.82;;;37.47;;
49962;SDS011;36180;57.678;11.910;2024-03-02T05:04:42;92.60;;;37.80;;
49962;SDS011;36180;57.678;11.910;2024-03-02T05:07:09;99.97;;;39.88;;
49962;SDS011;36180;57.678;11.910;2024-03-02T05:09:36;95.60;;;38.65;;
49962;SDS011;36180;57.678;11.910;2024-03-02T05:12:04;98.38;;;39.33;;
49962;SDS011;36180;57.678;11.910;2024-03-02T05:15:07;93.50;;;38.50;;
49962;SDS011;36180;57.678;11.910;2024-03-02T05:17:35;96.63;;;36.95;;
49962;SDS011;36180;57.678;11.910;2024-03-02T05:20:02;101.45;;;39.88;;
49962;SDS011;36180;57.678;11.910;2024-03-02T05:22:30;98.65;;;39.60;;
49962;SDS011;36180;57.678;11.910;2024-03-02T05:24:59;95.20;;;39.08;;
49962;SDS011;36180;57.678;11.910;2024-03-02T05:27:26;100.78;;;39.60;;
49962;SDS011;36180;57.678;11.910;2024-03-02T05:29:52;101.10;;;39.58;;
49962;SDS011;36180;57.678;11.910;2024-03-02T05:32:21;102.28;;;39.97;;
49962;SDS011;36180;57.678;11.910;2024-03-02T05:34:48;94.10;;;38.95;;
49962;SDS011;36180;57.678;11.910;2024-03-02T05:37:15;91.82;;;39.35;;
49962;SDS011;36180;57.678;11.910;2024-03-02T05:39:42;91.50;;;38.53;;
49962;SDS011;36180;57.678;11.910;2024-03-02T05:42:09;98.60;;;39.63;;
49962;SDS011;36180;57.678;11.910;2024-03-02T05:44:36;93.95;;;38.50;;
49962;SDS011;36180;57.678;11.910;2024-03-02T05:47:04;85.03;;;37.05;;
49962;SDS011;36180;57.678;11.910;2024-03-02T05:49:35;92.93;;;39.00;;
49962;SDS011;36180;57.678;11.910;2024-03-02T05:52:02;84.82;;;38.05;;
49962;SDS011;36180;57.678;11.910;2024-03-02T05:54:29;84.18;;;36.53;;
49962;SDS011;36180;57.678;11.910;2024-03-02T05:56:56;91.38;;;38.40;;
49962;SDS011;36180;57.678;11.910;2024-03-02T05:59:41;96.53;;;38.40;;
49962;SDS011;36180;57.678;11.910;2024-03-02T06:02:08;92.30;;;38.10;;
49962;SDS011;36180;57.678;11.910;2024-03-02T06:04:37;88.25;;;38.03;;
49962;SDS011;36180;57.678;11.910;2024-03-02T06:07:04;94.97;;;38.47;;
49962;SDS011;36180;57.678;11.910;2024-03-02T06:09:31;92.50;;;37.75;;
49962;SDS011;36180;57.678;11.910;2024-03-02T06:11:58;92.13;;;38.67;;
49962;SDS011;36180;57.678;11.910;2024-03-02T06:14:25;89.22;;;36.22;;
49962;SDS011;36180;57.678;11.910;2024-03-02T06:16:52;91.18;;;37.92;;
49962;SDS011;36180;57.678;11.910;2024-03-02T06:19:19;92.10;;;39.33;;
49962;SDS011;36180;57.678;11.910;2024-03-02T06:21:48;99.97;;;40.42;;
49962;SDS011;36180;57.678;11.910;2024-03-02T06:24:15;91.18;;;38.03;;
49962;SDS011;36180;57.678;11.910;2024-03-02T06:26:42;94.38;;;40.50;;
49962;SDS011;36180;57.678;11.910;2024-03-02T06:29:09;91.80;;;38.92;;
49962;SDS011;36180;57.678;11.910;2024-03-02T06:31:36;99.90;;;40.75;;
49962;SDS011;36180;57.678;11.910;2024-03-02T06:34:03;98.85;;;39.80;;
49962;SDS011;36180;57.678;11.910;2024-03-02T06:36:30;101.90;;;40.97;;
49962;SDS011;36180;57.678;11.910;2024-03-02T06:38:58;106.57;;;39.97;;
49962;SDS011;36180;57.678;11.910;2024-03-02T06:41:25;98.50;;;39.83;;
49962;SDS011;36180;57.678;11.910;2024-03-02T06:43:53;103.00;;;40.90;;
49962;SDS011;36180;57.678;11.910;2024-03-02T06:46:24;108.20;;;42.22;;
49962;SDS011;36180;57.678;11.910;2024-03-02T06:48:51;122.03;;;45.30;;
49962;SDS011;36180;57.678;11.910;2024-03-02T06:51:18;109.22;;;42.47;;
49962;SDS011;36180;57.678;11.910;2024-03-02T06:53:45;119.13;;;46.83;;
49962;SDS011;36180;57.678;11.910;2024-03-02T06:56:14;118.90;;;45.85;;
49962;SDS011;36180;57.678;11.910;2024-03-02T06:58:41;117.82;;;45.22;;
49962;SDS011;36180;57.678;11.910;2024-03-02T07:01:08;128.07;;;46.08;;
49962;SDS011;36180;57.678;11.910;2024-03-02T07:03:35;130.20;;;45.55;;
49962;SDS011;36180;57.678;11.910;2024-03-02T07:06:04;131.75;;;47.83;;
49962;SDS011;36180;57.678;11.910;2024-03-02T07:08:31;131.13;;;47.78;;
49962;SDS011;36180;57.678;11.910;2024-03-02T07:10:58;130.00;;;47.55;;
49962;SDS011;36180;57.678;11.910;2024-03-02T07:13:27;131.20;;;47.47;;
49962;SDS011;36180;57.678;11.910;2024-03-02T07:15:54;120.15;;;47.65;;
49962;SDS011;36180;57.678;11.910;2024-03-02T07:18:48;125.78;;;46.80;;
49962;SDS011;36180;57.678;11.910;2024-03-02T07:21:17;129.43;;;46.78;;
49962;SDS011;36180;57.678;11.910;2024-03-02T07:23:44;127.72;;;47.92;;
49962;SDS011;36180;57.678;11.910;2024-03-02T07:26:11;125.82;;;46.55;;
49962;SDS011;36180;57.678;11.910;2024-03-02T07:28:39;127.90;;;47.85;;
49962;SDS011;36180;57.678;11.910;2024-03-02T07:31:06;122.75;;;46.15;;
49962;SDS011;36180;57.678;11.910;2024-03-02T07:33:35;119.95;;;48.42;;
49962;SDS011;36180;57.678;11.910;2024-03-02T07:36:02;118.55;;;46.53;;
49962;SDS011;36180;57.678;11.910;2024-03-02T07:38:29;126.78;;;49.88;;
49962;SDS011;36180;57.678;11.910;2024-03-02T07:40:57;122.70;;;46.08;;
49962;SDS011;36180;57.678;11.910;2024-03-02T07:43:24;119.38;;;46.38;;
49962;SDS011;36180;57.678;11.910;2024-03-02T07:45:52;118.32;;;46.83;;
49962;SDS011;36180;57.678;11.910;2024-03-02T07:48:19;119.30;;;48.65;;
49962;SDS011;36180;57.678;11.910;2024-03-02T07:50:46;118.53;;;46.70;;
49962;SDS011;36180;57.678;11.910;2024-03-02T07:53:13;124.50;;;47.00;;
49962;SDS011;36180;57.678;11.910;2024-03-02T07:55:40;112.97;;;46.88;;
49962;SDS011;36180;57.678;11.910;2024-03-02T07:58:07;116.10;;;46.75;;
49962;SDS011;36180;57.678;11.910;2024-03-02T08:00:34;118.78;;;47.72;;
49962;SDS011;36180;57.678;11.910;2024-03-02T08:03:03;113.20;;;47.50;;
49962;SDS011;36180;57.678;11.910;2024-03-02T08:05:30;112.03;;;45.08;;
49962;SDS011;36180;57.678;11.910;2024-03-02T08:07:57;115.43;;;47.35;;
49962;SDS011;36180;57.678;11.910;2024-03-02T08:10:25;122.95;;;49.05;;
49962;SDS011;36180;57.678;11.910;2024-03-02T08:12:52;118.68;;;47.55;;
49962;SDS011;36180;57.678;11.910;2024-03-02T08:15:19;115.78;;;48.72;;
49962;SDS011;36180;57.678;11.910;2024-03-02T08:17:46;121.82;;;49.22;;
49962;SDS011;36180;57.678;11.910;2024-03-02T08:20:16;115.20;;;48.03;;
49962;SDS011;36180;57.678;11.910;2024-03-02T08:22:44;112.25;;;48.97;;
49962;SDS011;36180;57.678;11.910;2024-03-02T08:25:12;116.20;;;50.13;;
49962;SDS011;36180;57.678;11.910;2024-03-02T08:27:39;112.95;;;49.05;;
49962;SDS011;36180;57.678;11.910;2024-03-02T08:30:06;109.75;;;50.00;;
49962;SDS011;36180;57.678;11.910;2024-03-02T08:32:35;114.38;;;50.75;;
49962;SDS011;36180;57.678;11.910;2024-03-02T08:35:03;121.90;;;52.00;;
49962;SDS011;36180;57.678;11.910;2024-03-02T08:37:32;117.85;;;50.35;;
49962;SDS011;36180;57.678;11.910;2024-03-02T08:39:59;117.03;;;50.63;;
49962;SDS011;36180;57.678;11.910;2024-03-02T08:42:26;109.95;;;49.75;;
49962;SDS011;36180;57.678;11.910;2024-03-02T08:44:53;112.95;;;51.85;;
49962;SDS011;36180;57.678;11.910;2024-03-02T08:47:20;107.95;;;49.97;;
49962;SDS011;36180;57.678;11.910;2024-03-02T08:49:47;106.32;;;50.38;;
49962;SDS011;36180;57.678;11.910;2024-03-02T08:52:14;111.68;;;51.10;;
49962;SDS011;36180;57.678;11.910;2024-03-02T08:54:42;122.10;;;54.58;;
49962;SDS011;36180;57.678;11.910;2024-03-02T08:57:09;111.13;;;52.70;;
49962;SDS011;36180;57.678;11.910;2024-03-02T08:59:36;118.53;;;53.80;;
49962;SDS011;36180;57.678;11.910;2024-03-02T09:02:03;111.45;;;54.10;;
49962;SDS011;36180;57.678;11.910;2024-03-02T09:04:30;108.05;;;53.53;;
49962;SDS011;36180;57.678;11.910;2024-03-02T09:06:57;110.97;;;52.72;;
49962;SDS011;36180;57.678;11.910;2024-03-02T09:09:24;111.57;;;52.88;;
49962;SDS011;36180;57.678;11.910;2024-03-02T09:11:53;108.45;;;53.03;;
49962;SDS011;36180;57.678;11.910;2024-03-02T09:14:22;104.65;;;51.22;;
49962;SDS011;36180;57.678;11.910;2024-03-02T09:16:50;101.32;;;53.67;;
49962;SDS011;36180;57.678;11.910;2024-03-02T09:19:17;102.90;;;53.17;;
49962;SDS011;36180;57.678;11.910;2024-03-02T09:21:44;107.93;;;53.08;;
49962;SDS011;36180;57.678;11.910;2024-03-02T09:24:11;103.03;;;51.60;;
49962;SDS011;36180;57.678;11.910;2024-03-02T09:26:38;100.53;;;51.58;;
49962;SDS011;36180;57.678;11.910;2024-03-02T09:29:06;100.03;;;50.17;;
49962;SDS011;36180;57.678;11.910;2024-03-02T09:31:32;103.75;;;52.17;;
49962;SDS011;36180;57.678;11.910;2024-03-02T09:33:59;102.85;;;51.15;;
49962;SDS011;36180;57.678;11.910;2024-03-02T09:36:26;101.43;;;52.33;;
49962;SDS011;36180;57.678;11.910;2024-03-02T09:38:53;96.13;;;50.15;;
49962;SDS011;36180;57.678;11.910;2024-03-02T09:41:20;102.32;;;51.20;;
49962;SDS011;36180;57.678;11.910;2024-03-02T09:43:47;102.72;;;51.92;;
49962;SDS011;36180;57.678;11.910;2024-03-02T09:46:16;98.20;;;51.83;;
49962;SDS011;36180;57.678;11.910;2024-03-02T09:48:44;100.75;;;51.47;;
49962;SDS011;36180;57.678;11.910;2024-03-02T09:51:11;100.40;;;50.60;;
49962;SDS011;36180;57.678;11.910;2024-03-02T09:53:39;97.70;;;49.65;;
49962;SDS011;36180;57.678;11.910;2024-03-02T09:56:06;97.90;;;49.88;;
49962;SDS011;36180;57.678;11.910;2024-03-02T09:58:33;97.10;;;50.67;;
49962;SDS011;36180;57.678;11.910;2024-03-02T10:01:00;93.70;;;50.50;;
49962;SDS011;36180;57.678;11.910;2024-03-02T10:03:29;100.63;;;50.67;;
49962;SDS011;36180;57.678;11.910;2024-03-02T10:08:46;98.32;;;51.00;;
49962;SDS011;36180;57.678;11.910;2024-03-02T10:11:25;93.80;;;49.83;;
49962;SDS011;36180;57.678;11.910;2024-03-02T10:14:03;91.22;;;49.17;;
49962;SDS011;36180;57.678;11.910;2024-03-02T10:16:33;92.72;;;49.40;;
49962;SDS011;36180;57.678;11.910;2024-03-02T10:19:16;101.45;;;50.63;;
49962;SDS011;36180;57.678;11.910;2024-03-02T10:21:43;93.32;;;49.65;;
49962;SDS011;36180;57.678;11.910;2024-03-02T10:24:11;93.43;;;50.13;;
49962;SDS011;36180;57.678;11.910;2024-03-02T10:26:38;99.70;;;51.85;;
49962;SDS011;36180;57.678;11.910;2024-03-02T10:29:07;102.47;;;51.05;;
49962;SDS011;36180;57.678;11.910;2024-03-02T10:31:36;97.43;;;51.50;;
49962;SDS011;36180;57.678;11.910;2024-03-02T10:34:04;87.03;;;48.38;;
49962;SDS011;36180;57.678;11.910;2024-03-02T10:36:32;88.40;;;49.05;;
49962;SDS011;36180;57.678;11.910;2024-03-02T10:39:01;92.15;;;49.63;;
49962;SDS011;36180;57.678;11.910;2024-03-02T10:41:29;93.40;;;49.22;;
49962;SDS011;36180;57.678;11.910;2024-03-02T10:43:58;94.78;;;51.45;;
49962;SDS011;36180;57.678;11.910;2024-03-02T10:46:26;81.85;;;47.45;;
49962;SDS011;36180;57.678;11.910;2024-03-02T10:48:55;91.22;;;50.03;;
49962;SDS011;36180;57.678;11.910;2024-03-02T10:51:24;91.07;;;49.00;;
49962;SDS011;36180;57.678;11.910;2024-03-02T10:53:52;87.68;;;48.83;;
49962;SDS011;36180;57.678;11.910;2024-03-02T10:56:21;85.88;;;48.15;;
49962;SDS011;36180;57.678;11.910;2024-03-02T10:58:51;84.25;;;47.70;;
49962;SDS011;36180;57.678;11.910;2024-03-02T11:01:25;84.22;;;49.00;;
49962;SDS011;36180;57.678;11.910;2024-03-02T11:03:52;92.95;;;50.00;;
49962;SDS011;36180;57.678;11.910;2024-03-02T11:06:20;87.10;;;47.50;;
49962;SDS011;36180;57.678;11.910;2024-03-02T11:08:49;84.97;;;47.00;;
49962;SDS011;36180;57.678;11.910;2024-03-02T11:11:19;82.30;;;45.00;;
49962;SDS011;36180;57.678;11.910;2024-03-02T11:13:50;80.18;;;45.53;;
49962;SDS011;36180;57.678;11.910;2024-03-02T11:16:22;81.22;;;45.80;;
49962;SDS011;36180;57.678;11.910;2024-03-02T11:18:55;79.43;;;44.05;;
49962;SDS011;36180;57.678;11.910;2024-03-02T11:21:24;77.85;;;44.60;;
49962;SDS011;36180;57.678;11.910;2024-03-02T11:23:51;71.75;;;43.38;;
49962;SDS011;36180;57.678;11.910;2024-03-02T11:26:20;67.55;;;40.50;;
49962;SDS011;36180;57.678;11.910;2024-03-02T11:28:48;72.78;;;43.90;;
49962;SDS011;36180;57.678;11.910;2024-03-02T11:31:15;68.78;;;41.30;;
49962;SDS011;36180;57.678;11.910;2024-03-02T11:33:42;67.25;;;41.97;;
49962;SDS011;36180;57.678;11.910;2024-03-02T11:36:09;65.82;;;40.17;;
49962;SDS011;36180;57.678;11.910;2024-03-02T11:38:36;68.82;;;40.53;;
49962;SDS011;36180;57.678;11.910;2024-03-02T11:41:05;68.20;;;39.60;;
49962;SDS011;36180;57.678;11.910;2024-03-02T11:43:37;65.63;;;38.05;;
49962;SDS011;36180;57.678;11.910;2024-03-02T11:46:05;65.97;;;39.17;;
49962;SDS011;36180;57.678;11.910;2024-03-02T11:48:34;62.15;;;36.72;;
49962;SDS011;36180;57.678;11.910;2024-03-02T11:51:02;59.40;;;36.00;;
49962;SDS011;36180;57.678;11.910;2024-03-02T11:53:29;54.30;;;33.33;;
49962;SDS011;36180;57.678;11.910;2024-03-02T11:55:58;56.05;;;33.03;;
49962;SDS011;36180;57.678;11.910;2024-03-02T11:58:26;54.92;;;33.67;;
49962;SDS011;36180;57.678;11.910;2024-03-02T12:00:56;55.33;;;34.03;;
49962;SDS011;36180;57.678;11.910;2024-03-02T12:03:23;55.72;;;32.83;;
49962;SDS011;36180;57.678;11.910;2024-03-02T12:05:50;50.90;;;31.70;;
49962;SDS011;36180;57.678;11.910;2024-03-02T12:08:18;46.35;;;30.48;;
49962;SDS011;36180;57.678;11.910;2024-03-02T12:10:55;49.63;;;31.23;;
49962;SDS011;36180;57.678;11.910;2024-03-02T12:13:22;51.22;;;31.40;;
49962;SDS011;36180;57.678;11.910;2024-03-02T12:15:52;44.53;;;29.23;;
49962;SDS011;36180;57.678;11.910;2024-03-02T12:18:21;42.85;;;28.77;;
49962;SDS011;36180;57.678;11.910;2024-03-02T12:20:49;39.72;;;27.50;;
49962;SDS011;36180;57.678;11.910;2024-03-02T12:23:18;38.95;;;25.95;;
49962;SDS011;36180;57.678;11.910;2024-03-02T12:25:46;40.63;;;26.73;;
49962;SDS011;36180;57.678;11.910;2024-03-02T12:28:13;38.72;;;25.52;;
49962;SDS011;36180;57.678;11.910;2024-03-02T12:30:40;34.67;;;25.25;;
49962;SDS011;36180;57.678;11.910;2024-03-02T12:33:07;35.15;;;24.73;;
49962;SDS011;36180;57.678;11.910;2024-03-02T12:35:35;35.08;;;24.23;;
49962;SDS011;36180;57.678;11.910;2024-03-02T12:38:02;33.55;;;24.80;;
49962;SDS011;36180;57.678;11.910;2024-03-02T12:40:30;35.75;;;23.48;;
49962;SDS011;36180;57.678;11.910;2024-03-02T12:42:59;34.08;;;23.95;;
49962;SDS011;36180;57.678;11.910;2024-03-02T12:45:26;31.58;;;22.00;;
49962;SDS011;36180;57.678;11.910;2024-03-02T12:47:53;30.98;;;22.63;;
49962;SDS011;36180;57.678;11.910;2024-03-02T12:50:20;31.92;;;22.67;;
49962;SDS011;36180;57.678;11.910;2024-03-02T12:52:52;31.50;;;22.55;;
49962;SDS011;36180;57.678;11.910;2024-03-02T12:55:20;28.77;;;21.73;;
49962;SDS011;36180;57.678;11.910;2024-03-02T12:57:49;29.35;;;21.40;;
49962;SDS011;36180;57.678;11.910;2024-03-02T13:00:17;28.65;;;19.77;;
49962;SDS011;36180;57.678;11.910;2024-03-02T13:02:45;27.38;;;20.20;;
49962;SDS011;36180;57.678;11.910;2024-03-02T13:05:13;26.77;;;19.77;;
49962;SDS011;36180;57.678;11.910;2024-03-02T13:07:40;28.85;;;20.02;;
49962;SDS011;36180;57.678;11.910;2024-03-02T13:10:09;26.77;;;19.05;;
49962;SDS011;36180;57.678;11.910;2024-03-02T13:12:36;23.17;;;18.00;;
49962;SDS011;36180;57.678;11.910;2024-03-02T13:15:04;23.75;;;18.08;;
49962;SDS011;36180;57.678;11.910;2024-03-02T13:17:31;25.00;;;18.25;;
49962;SDS011;36180;57.678;11.910;2024-03-02T13:20:01;20.60;;;15.70;;
49962;SDS011;36180;57.678;11.910;2024-03-02T13:22:33;22.15;;;16.15;;
49962;SDS011;36180;57.678;11.910;2024-03-02T13:25:00;23.25;;;17.15;;
49962;SDS011;36180;57.678;11.910;2024-03-02T13:27:30;22.15;;;16.60;;
49962;SDS011;36180;57.678;11.910;2024-03-02T13:29:57;21.13;;;16.17;;
49962;SDS011;36180;57.678;11.910;2024-03-02T13:32:24;22.70;;;16.48;;
49962;SDS011;36180;57.678;11.910;2024-03-02T13:34:51;21.17;;;16.30;;
49962;SDS011;36180;57.678;11.910;2024-03-02T13:37:19;19.88;;;15.73;;
49962;SDS011;36180;57.678;11.910;2024-03-02T13:39:46;20.40;;;15.32;;
49962;SDS011;36180;57.678;11.910;2024-03-02T13:42:13;20.65;;;15.60;;
49962;SDS011;36180;57.678;11.910;2024-03-02T13:44:42;19.45;;;15.82;;
49962;SDS011;36180;57.678;11.910;2024-03-02T13:47:10;20.33;;;15.50;;
49962;SDS011;36180;57.678;11.910;2024-03-02T13:49:37;21.35;;;14.95;;
49962;SDS011;36180;57.678;11.910;2024-03-02T13:52:09;18.27;;;14.60;;
49962;SDS011;36180;57.678;11.910;2024-03-02T13:54:38;20.13;;;15.30;;
49962;SDS011;36180;57.678;11.910;2024-03-02T13:57:05;18.23;;;14.55;;
49962;SDS011;36180;57.678;11.910;2024-03-02T13:59:32;18.73;;;14.70;;
49962;SDS011;36180;57.678;11.910;2024-03-02T14:02:01;16.83;;;14.93;;
49962;SDS011;36180;57.678;11.910;2024-03-02T14:04:30;16.15;;;13.27;;
49962;SDS011;36180;57.678;11.910;2024-03-02T14:06:57;17.63;;;14.10;;
49962;SDS011;36180;57.678;11.910;2024-03-02T14:09:24;14.98;;;13.38;;
49962;SDS011;36180;57.678;11.910;2024-03-02T14:11:52;16.48;;;13.77;;